Akraberg, Faroe Islands

11:00 PM WEST on September 01, 2015 (GMT +0100)
Vagar | | Change Station
CLOSE
Current Station
Airport
Location: Vagar,
Elevation: 279 ft
Nearby Weather Stations

Elev 279 ft 62.07 °N, 7.28 °W | Updated 10 minutes ago

Overcast
Overcast
46 °F
Feels Like 42 °F
N
10
Wind Variable Wind from North

Today
High -- | Low -- °F
--% Chance of Precip.
Yesterday
High -- | Low -- °F
Precip. -- in
6:16 AM 8:35 PM
Waning Gibbous, 86% visible
Pressure 30.30 in
Visibility 6.2 miles
Clouds Overcast 2900 ft
Windchill 42 °F
Dew Point 37 °F
Humidity 71%
Rainfall 0.00 in
Snow Depth Not available.
UV 0 out of 12
Pollen Not available.
Air Quality Not available.
Flu Activity Not available.
METAR EKVG 012150Z AUTO 01009KT 9999NDV OVC029/// 08/03 Q1026 RMK OVC025/// WIND 850FT 36009KT 330V050
Pressure 30.30 in
Visibility 6.2 miles
Clouds Overcast 2900 ft
Windchill 42 °F
Dew Point 37 °F
Humidity 71%
Rainfall 0.00 in
Snow Depth Not available.
UV 0 out of 12
Pollen Not available.
Air Quality Not available.
Flu Activity Not available.
METAR EKVG 012150Z AUTO 01009KT 9999NDV OVC029/// 08/03 Q1026 RMK OVC025/// WIND 850FT 36009KT 330V050

10-Day Weather Forecast

×

Almanac

Astronomy

Sep. 01, 2015 Rise Set
Actual Time
Civil Twilight
Nautical Twilight
Astronomical Twilight
Moon
Length of Visible Light
Length of Day
Tomorrow will be .
, % of the Moon is Illuminated

Today's Extremes

Country Highs Country Lows

Community

WunderPhotos

Upload Photos

1,851,628 photos uploaded!

WunderBlogs® & News

Nearby

Air Quality

  Air Quality AQ Index Pollutant
Not available.

Snow Depth

Station Depth Elevation

Earthquake Activity

City Distance Mag. Time & Date
Minimum magnitude displayed is 2.5.

Coastal Water Temperatures

Place Temperature

Stations

Nearby Weather Stations

Station Location Temp. Windchill Dew Point Humidity Wind Precip. Elev Updated Type